Huvudsida
METAR-TAF:

METAR-TAF

Flygplatser :

Jönköping Airport

Jönköping, Sverige

latitud: 57-46N, longitud: 014-05E, höjd: 226 m

Aktuellt väderrapport

Denna rapport gjordes för 32 minuter sedan, klockan 12:20 UTC
Vind 14 kt från syd/sydväst
Temperatur 18°C
Fuktighet 68%
Tryck 1016 hPa
Sikt 10 km eller mer

METAR: ESGJ 181220Z AUTO 21014KT 9999 BKN032/// OVC059/// 18/12 Q1016

Tid: 14:52 (12:52 UTC)

Väderprognos

Denna rapport gjordes för 4 timmar och 22 minuter sedan, klockan 08:30 UTC
Prognos gäller från 18 kl. 09 UTC till 18 kl. 13 UTC
Vind 14 kt från sydväst i byarna ända upp till 24 kt
Sikt 10 km eller mer
Spridda moln på en höjd av 3500 ft

TAF: ESGJ 180830Z 1809/1813 23014G24KT 9999 SCT035

Aktuella väderrapporter och prognoser från 4000 flygplatser (METAR- och TAF-rapporter).

De tillgängliga stationerna syns som gula och röda prickar på kartan.

För musen över prickarna för att se namnen på stationerna.

Klicka sedan för att få väderrapporter och prognoser.

För att ändra kartan: Klicka på de gröna knapparna med ett svart kors på för att zooma in; den gröna knappen med ett streck på för att zooma ut; eller på de gröna pilarna för angränsande kartor.


METAR-TAF: